• Join FlightAware (Why Join?)
  • Login
  • US Flag 
01:29PM EST


 

Airport Tracker/Info


-or-


 

Live Flight TrackerFlight Track Log ✈ SWA3143 ✈ 27-Apr-2013 ✈ KDAL - KAUS

Flight Track Log - Related Links

Times and Time Zones

All times are in EDT time to prevent confusion due to time zone crossing. See the SWA3143 flight status page for this flight to view local times or setup timezone preferences in your user account.

Time Position Orientation Groundspeed Altitude Reporting Facility
EDT Latitude Longitude Course Direction KTS MPH feet Rate Location/Type
07:36PM 32.8667 -96.8833 320° Northwest 150 173 2,400  Level Dallas / Fort Worth TRACON
07:37PM 32.9167 -96.9333 320° Northwest 206 237 5,300 2,880 Climbing Dallas / Fort Worth TRACON
07:38PM 32.8667 -96.9833 220° Southwest 283 326 8,200 3,000 Climbing Dallas / Fort Worth TRACON
07:40PM 32.6908 -97.0086 187° South 331 381 14,500 2,880 Climbing Fort Worth Center
07:41PM 32.6011 -97.0189 186° South 360 414 17,000 2,640 Climbing Fort Worth Center
07:42PM 32.4864 -97.0342 186° South 375 432 19,800 1,500 Climbing Fort Worth Center
07:43PM 32.3839 -97.0469 186° South 399 459 20,000 60 Climbing Fort Worth Center
07:44PM 32.2608 -97.0619 186° South 411 473 20,000  Level Fort Worth Center
07:45PM 32.1544 -97.0625 180° South 422 486 20,000  Level Fort Worth Center
07:46PM 32.0375 -97.0653 181° South 422 486 20,000 -60 Level Fort Worth Center
07:47PM 31.9100 -97.0708 182° South 422 486 19,900 -660 Descending Fort Worth Center
07:48PM 31.7994 -97.0783 183° South 412 474 18,700 -960 Descending Fort Worth Center
07:49PM 31.6867 -97.0764 179° South 406 467 18,000 -360 Descending Fort Worth Center
07:51PM 31.5583 -97.0825 182° South 389 448 18,000  Level Houston Center
07:52PM 31.4558 -97.1128 194° South 379 436 18,000 -600 Level Houston Center
07:53PM 31.3583 -97.1500 198° South 366 421 16,900 -1,320 Descending Houston Center
07:54PM 31.2675 -97.1869 199° South 346 398 15,400 -1,440 Descending Houston Center
07:55PM 31.1772 -97.2211 198° South 339 390 14,000 -1,140 Descending Houston Center
07:56PM 31.0728 -97.2622 199° South 338 389 13,100 -480 Descending Houston Center
07:57PM 30.9839 -97.2978 199° South 339 390 13,100 -60 Level Houston Center
07:58PM 30.8939 -97.3317 198° South 350 403 13,000 -180 Descending Houston Center
07:59PM 30.8083 -97.3639 198° South 326 375 12,800 -1,380 Descending Houston Center
08:00PM 30.7356 -97.4100 209° Southwest 301 346 10,200 -1,920 Descending Houston Center
08:01PM 30.6617 -97.4550 208° Southwest 298 343 8,900 -1,500 Descending Houston Center
08:02PM 30.5911 -97.4992 208° Southwest 289 333 7,200 -1,560 Descending Houston Center
08:03PM 30.5194 -97.5428 208° Southwest 288 331 5,800 -1,500 Descending Houston Center
08:04PM 30.4522 -97.5839 208° Southwest 276 318 4,200 -1,620 Descending Houston Center
08:05PM 30.3858 -97.6236 207° Southwest 268 308 2,500 -1,140 Descending Houston Center
08:06PM 30.3236 -97.6617 208° Southwest 258 297 2,000 -540 Descending Houston Center